Time;durP1;ratioP1;P1;durP2;ratioP2;P2;SDS_P1;SDS_P2;PMS_P1;PMS_P2;Temp;Humidity;BMP_temperature;BMP_pressure;BME280_temperature;BME280_humidity;BME280_pressure;Samples;Min_cycle;Max_cycle;Signal;HPM_P1;HPM_P2
2023/09/30 00:02:14;;;;;;;7.28;3.65;;;;;;;18.44;62.78;93381.44;2026298;70;20619;-74
2023/09/30 00:04:42;;;;;;;8.43;3.60;;;;;;;18.10;64.30;93399.88;2025888;70;20148;-73
2023/09/30 00:07:09;;;;;;;8.10;4.25;;;;;;;17.69;65.76;93407.34;2025904;70;20506;-73
2023/09/30 00:09:39;;;;;;;9.75;3.55;;;;;;;18.06;64.14;93394.78;2025935;70;20157;-74
2023/09/30 00:12:13;;;;;;;7.15;4.00;;;;;;;18.36;62.59;93412.44;2025901;70;20145;-75
2023/09/30 00:14:43;;;;;;;6.72;3.55;;;;;;;18.27;63.28;93414.22;2025723;70;20157;-74
2023/09/30 00:17:11;;;;;;;7.80;3.60;;;;;;;18.28;63.24;93398.59;2026000;70;20157;-73
2023/09/30 00:19:39;;;;;;;6.57;3.45;;;;;;;18.34;63.58;93415.22;2025642;70;20163;-75
2023/09/30 00:22:10;;;;;;;5.40;3.35;;;;;;;18.22;63.50;93398.31;2026093;70;20176;-73
2023/09/30 00:24:37;;;;;;;8.90;3.50;;;;;;;18.29;64.13;93399.31;2025776;70;20172;-75
2023/09/30 00:27:12;;;;;;;8.70;3.45;;;;;;;18.33;62.88;93396.66;2025216;70;20157;-75
2023/09/30 00:29:45;;;;;;;5.18;3.42;;;;;;;18.27;63.05;93405.66;2025946;70;20502;-74
2023/09/30 00:32:12;;;;;;;6.57;3.72;;;;;;;18.23;63.48;93396.94;2025871;70;20225;-73
2023/09/30 00:34:42;;;;;;;6.50;3.47;;;;;;;18.15;64.16;93398.72;2025309;70;20149;-74
2023/09/30 00:37:10;;;;;;;8.13;3.58;;;;;;;18.19;63.47;93405.31;2025989;70;20148;-75
2023/09/30 00:39:37;;;;;;;6.30;3.55;;;;;;;18.17;63.06;93410.91;2025732;70;20179;-73
2023/09/30 00:42:04;;;;;;;5.95;3.17;;;;;;;18.22;63.26;93417.53;2025676;70;20140;-74
2023/09/30 00:44:33;;;;;;;5.60;3.40;;;;;;;18.00;63.10;93411.56;2028595;70;20296;-74
2023/09/30 00:46:59;;;;;;;7.32;3.53;;;;;;;17.96;63.56;93422.78;2028967;70;20156;-74
2023/09/30 00:49:26;;;;;;;10.35;3.33;;;;;;;17.95;64.57;93415.63;2028661;70;20710;-74
2023/09/30 00:51:52;;;;;;;5.82;3.75;;;;;;;18.00;63.80;93420.13;2028264;70;20169;-74
2023/09/30 00:54:19;;;;;;;9.20;3.80;;;;;;;17.80;64.43;93419.94;2028216;70;20268;-75
2023/09/30 00:56:46;;;;;;;6.97;3.70;;;;;;;17.81;64.71;93424.25;2028992;70;20153;-73
2023/09/30 00:59:14;;;;;;;6.25;3.75;;;;;;;17.73;65.43;93430.34;2029334;70;20255;-74
2023/09/30 01:01:41;;;;;;;8.95;3.78;;;;;;;17.75;64.71;93419.03;2029382;70;20157;-74
2023/09/30 01:04:07;;;;;;;5.30;3.60;;;;;;;17.77;65.22;93421.97;2028171;70;20164;-74
2023/09/30 01:06:42;;;;;;;9.07;3.75;;;;;;;17.73;65.85;93421.00;2028851;70;20140;-74
2023/09/30 01:09:14;;;;;;;5.47;3.40;;;;;;;17.74;65.74;93417.56;2029203;70;20228;-75
2023/09/30 01:11:45;;;;;;;6.57;3.30;;;;;;;17.83;65.05;93426.50;2028767;70;20141;-75
2023/09/30 01:14:26;;;;;;;6.25;3.90;;;;;;;17.76;65.69;93431.16;2029319;70;20249;-74
2023/09/30 01:16:51;;;;;;;5.60;3.83;;;;;;;17.77;65.58;93436.19;2028547;70;20526;-74
2023/09/30 01:19:17;;;;;;;7.10;3.60;;;;;;;17.77;63.85;93433.34;2029166;70;20167;-75
2023/09/30 01:21:48;;;;;;;10.05;3.78;;;;;;;17.74;65.32;93445.31;2028667;70;20161;-75
2023/09/30 01:24:14;;;;;;;7.90;3.78;;;;;;;17.15;67.51;93451.03;2028482;70;20233;-74
2023/09/30 01:26:44;;;;;;;5.03;3.50;;;;;;;17.62;65.65;93453.25;2028339;70;20165;-73
2023/09/30 01:29:10;;;;;;;5.50;3.33;;;;;;;17.62;66.44;93461.78;2028247;70;20148;-73
2023/09/30 01:31:37;;;;;;;7.45;3.65;;;;;;;17.73;65.51;93449.50;2028809;70;20176;-74
2023/09/30 01:34:03;;;;;;;7.10;3.75;;;;;;;17.61;66.05;93437.56;2028465;70;20175;-74
2023/09/30 01:36:29;;;;;;;10.07;3.70;;;;;;;17.74;66.32;93445.31;2028917;70;20180;-73
2023/09/30 01:38:55;;;;;;;6.05;3.53;;;;;;;17.76;66.27;93442.53;2028426;70;20157;-74
2023/09/30 01:41:21;;;;;;;5.43;3.60;;;;;;;17.76;65.98;93448.25;2029061;70;20140;-74
2023/09/30 01:43:48;;;;;;;7.05;3.70;;;;;;;17.71;65.37;93443.72;2028917;70;20583;-75
2023/09/30 01:46:14;;;;;;;7.60;3.70;;;;;;;16.96;69.01;93441.63;2025508;70;20168;-75
2023/09/30 01:48:40;;;;;;;6.45;3.85;;;;;;;17.08;68.62;93443.56;2028301;70;20540;-75
2023/09/30 01:51:06;;;;;;;7.25;3.92;;;;;;;17.30;67.72;93453.19;2028533;70;20217;-75
2023/09/30 01:53:32;;;;;;;6.55;3.70;;;;;;;17.47;66.17;93451.84;2028470;70;20156;-75
2023/09/30 01:55:59;;;;;;;8.82;3.80;;;;;;;17.48;67.29;93462.59;2026741;70;20583;-74
2023/09/30 01:58:27;;;;;;;6.93;3.53;;;;;;;17.53;66.83;93449.28;2025161;71;20606;-74
2023/09/30 02:00:53;;;;;;;7.57;3.40;;;;;;;17.56;66.21;93445.16;2025241;71;20164;-74
2023/09/30 02:03:19;;;;;;;8.57;3.75;;;;;;;17.58;66.42;93448.09;2025569;70;20156;-74
2023/09/30 02:05:47;;;;;;;4.60;3.20;;;;;;;17.56;66.57;93439.47;2025131;71;20200;-74
2023/09/30 02:08:14;;;;;;;9.85;3.22;;;;;;;17.57;68.55;93443.06;2025237;71;20156;-74
2023/09/30 02:10:41;;;;;;;4.72;3.30;;;;;;;17.46;68.56;93433.31;2025852;70;20141;-74
2023/09/30 02:13:06;;;;;;;6.88;3.30;;;;;;;17.61;65.30;93443.25;2025255;71;20241;-74
2023/09/30 02:15:33;;;;;;;9.50;3.90;;;;;;;17.26;68.17;93447.28;2025403;71;20152;-74
2023/09/30 02:18:00;;;;;;;5.10;3.25;;;;;;;17.19;68.13;93434.16;2025977;70;20148;-73
2023/09/30 02:20:29;;;;;;;9.18;4.05;;;;;;;17.37;67.01;93457.81;2025839;70;20156;-74
2023/09/30 02:22:55;;;;;;;6.60;3.30;;;;;;;17.41;66.71;93460.09;2026087;70;20222;-77
2023/09/30 02:25:21;;;;;;;6.03;3.50;;;;;;;17.41;67.03;93458.00;2025987;70;20164;-75
2023/09/30 02:27:49;;;;;;;4.95;3.75;;;;;;;17.47;66.08;93454.69;2025529;71;20177;-76
2023/09/30 02:30:16;;;;;;;7.63;3.60;;;;;;;17.28;67.96;93456.69;2026023;70;20638;-75
2023/09/30 02:32:42;;;;;;;7.00;3.70;;;;;;;17.32;67.46;93453.31;2026133;70;20144;-76
2023/09/30 02:35:11;;;;;;;5.57;3.85;;;;;;;17.39;66.00;93457.16;2025509;71;20507;-73
2023/09/30 02:37:38;;;;;;;6.90;3.72;;;;;;;17.20;67.48;93452.72;2026401;70;20634;-75
2023/09/30 02:40:10;;;;;;;6.15;3.95;;;;;;;17.26;67.29;93448.03;2026458;70;20159;-77
2023/09/30 02:42:41;;;;;;;7.85;3.88;;;;;;;17.34;67.04;93461.91;2028109;70;20225;-75
2023/09/30 02:45:09;;;;;;;9.60;3.42;;;;;;;17.38;67.52;93464.22;2026013;71;20546;-75
2023/09/30 02:47:35;;;;;;;6.60;3.95;;;;;;;17.37;67.58;93460.66;2026613;70;20149;-75
2023/09/30 02:50:01;;;;;;;7.05;4.10;;;;;;;17.33;67.71;93471.09;2025916;71;20157;-74
2023/09/30 02:52:28;;;;;;;6.47;3.85;;;;;;;17.35;67.73;93459.81;2026625;70;20157;-74
2023/09/30 02:54:55;;;;;;;5.60;3.92;;;;;;;17.29;66.90;93463.09;2026421;70;20132;-74
2023/09/30 02:57:21;;;;;;;7.00;4.15;;;;;;;17.30;66.94;93467.41;2024667;71;20157;-75
2023/09/30 02:59:47;;;;;;;7.40;3.70;;;;;;;17.34;67.44;93461.91;2023249;71;20177;-76
2023/09/30 03:02:15;;;;;;;8.25;3.97;;;;;;;17.29;67.93;93457.41;2023348;71;20614;-76
2023/09/30 03:04:41;;;;;;;8.85;4.53;;;;;;;17.22;68.72;93464.16;2024372;71;20605;-75
2023/09/30 03:07:07;;;;;;;5.70;3.85;;;;;;;17.17;67.09;93471.03;2026323;71;20204;-78
2023/09/30 03:09:32;;;;;;;8.18;4.30;;;;;;;17.17;67.20;93466.09;2026974;70;20149;-76
2023/09/30 03:11:59;;;;;;;8.05;3.83;;;;;;;16.98;68.47;93460.88;2026582;70;20187;-75
2023/09/30 03:14:25;;;;;;;6.22;4.07;;;;;;;17.00;68.73;93458.88;2026564;70;20230;-77
2023/09/30 03:16:52;;;;;;;6.13;4.03;;;;;;;17.02;67.00;93456.13;2026925;70;20239;-76
2023/09/30 03:19:17;;;;;;;6.95;4.05;;;;;;;17.03;68.44;93460.44;2026646;70;20133;-76
2023/09/30 03:21:43;;;;;;;8.30;3.65;;;;;;;17.05;67.86;93459.09;2026798;70;20180;-75
2023/09/30 03:24:09;;;;;;;6.60;3.72;;;;;;;16.97;68.95;93456.56;2025580;70;20173;-75
2023/09/30 03:26:35;;;;;;;7.82;4.30;;;;;;;16.73;69.54;93458.94;2023354;70;20161;-74
2023/09/30 03:29:03;;;;;;;8.45;4.47;;;;;;;16.81;68.75;93464.28;2023119;70;20176;-75
2023/09/30 03:31:29;;;;;;;8.55;4.07;;;;;;;16.87;68.23;93479.56;2022843;71;20302;-76
2023/09/30 03:33:54;;;;;;;8.48;4.10;;;;;;;16.79;69.42;93467.03;2023644;71;20244;-78
2023/09/30 03:36:22;;;;;;;7.18;4.25;;;;;;;16.87;69.34;93464.59;2025966;71;20225;-77
2023/09/30 03:38:47;;;;;;;7.13;4.00;;;;;;;16.85;69.22;93462.38;2026593;70;20203;-77
2023/09/30 03:41:13;;;;;;;6.47;4.03;;;;;;;16.83;69.24;93456.63;2026672;70;20240;-74
2023/09/30 03:43:42;;;;;;;7.70;3.97;;;;;;;16.88;69.15;93449.75;2026387;70;20156;-73
2023/09/30 03:46:08;;;;;;;9.50;4.10;;;;;;;16.83;68.83;93467.25;2026334;70;20145;-73
2023/09/30 03:48:39;;;;;;;8.45;4.35;;;;;;;16.80;68.71;93471.34;2026607;70;20191;-73
2023/09/30 03:51:14;;;;;;;7.10;4.45;;;;;;;16.86;68.42;93468.81;2025975;70;20146;-74
2023/09/30 03:53:44;;;;;;;5.65;3.78;;;;;;;16.72;69.33;93458.22;2026535;70;20149;-73
2023/09/30 03:56:13;;;;;;;7.32;4.00;;;;;;;16.80;69.34;93463.56;2026499;70;20141;-73
2023/09/30 03:58:41;;;;;;;8.95;4.95;;;;;;;16.79;69.50;93459.25;2026413;70;20351;-73
2023/09/30 04:01:07;;;;;;;6.90;4.30;;;;;;;16.81;69.88;93459.34;2026524;70;20180;-74
2023/09/30 04:03:34;;;;;;;5.65;4.18;;;;;;;16.76;69.32;93451.97;2026473;70;20244;-75
2023/09/30 04:06:02;;;;;;;9.95;3.83;;;;;;;16.79;68.69;93445.03;2026277;71;20193;-75
2023/09/30 04:08:29;;;;;;;7.40;4.30;;;;;;;16.39;69.56;93455.78;2026211;70;20148;-74
2023/09/30 04:10:54;;;;;;;6.82;4.28;;;;;;;16.69;68.72;93467.25;2026357;70;20141;-74
2023/09/30 04:13:21;;;;;;;7.97;4.20;;;;;;;16.65;69.00;93467.03;2026256;70;20257;-75
2023/09/30 04:15:47;;;;;;;9.27;4.10;;;;;;;16.38;69.03;93425.91;2026297;70;20526;-77
2023/09/30 04:18:12;;;;;;;9.27;4.45;;;;;;;16.64;68.95;93463.47;2023200;71;20129;-78
2023/09/30 04:20:39;;;;;;;11.15;4.07;;;;;;;16.51;69.64;93461.38;2025872;70;20140;-76
2023/09/30 04:23:06;;;;;;;8.90;4.20;;;;;;;16.53;69.94;93465.03;2026169;70;20175;-75
2023/09/30 04:25:32;;;;;;;10.98;4.32;;;;;;;16.61;68.99;93472.50;2025913;70;20529;-77
2023/09/30 04:27:58;;;;;;;14.75;5.07;;;;;;;16.29;70.00;93478.00;2026415;70;20153;-75
2023/09/30 04:30:24;;;;;;;8.18;4.47;;;;;;;16.54;67.95;93468.63;2026503;70;20602;-74
2023/09/30 04:32:49;;;;;;;9.73;4.50;;;;;;;16.52;69.63;93479.88;2026392;70;20606;-75
2023/09/30 04:35:15;;;;;;;5.57;3.97;;;;;;;16.42;70.54;93476.53;2026478;70;20144;-75
2023/09/30 04:37:41;;;;;;;7.68;4.05;;;;;;;16.44;69.95;93470.94;2026403;70;20679;-74
2023/09/30 04:40:19;;;;;;;8.35;4.50;;;;;;;16.60;69.18;93480.31;2026280;71;20237;-75
2023/09/30 04:42:46;;;;;;;5.97;3.75;;;;;;;16.63;68.30;93481.13;2025980;70;20221;-75
2023/09/30 04:45:13;;;;;;;7.55;4.80;;;;;;;16.20;71.19;93487.47;2026431;70;20298;-75
2023/09/30 04:47:39;;;;;;;8.18;4.38;;;;;;;16.39;70.40;93489.16;2025934;70;20267;-74
2023/09/30 04:50:08;;;;;;;9.88;4.82;;;;;;;16.46;70.23;93488.13;2026376;70;20594;-74
2023/09/30 04:52:38;;;;;;;7.93;4.65;;;;;;;16.47;68.27;93492.44;2026106;70;20222;-74
2023/09/30 04:55:04;;;;;;;9.38;4.80;;;;;;;16.51;68.74;93495.47;2025415;71;20153;-78
2023/09/30 04:57:31;;;;;;;10.10;4.70;;;;;;;16.65;65.93;93504.72;2026015;70;20145;-77
2023/09/30 04:59:57;;;;;;;8.65;4.88;;;;;;;16.59;68.29;93506.53;2026142;70;20176;-76
2023/09/30 05:02:24;;;;;;;6.03;3.92;;;;;;;16.55;68.90;93521.28;2026340;70;20177;-77
2023/09/30 05:04:52;;;;;;;8.27;5.30;;;;;;;16.58;69.17;93513.56;2026337;70;20136;-75
2023/09/30 05:07:18;;;;;;;7.03;4.47;;;;;;;16.60;68.30;93522.22;2026318;70;20221;-75
2023/09/30 05:09:44;;;;;;;7.93;4.57;;;;;;;16.56;68.41;93517.06;2026449;70;20141;-75
2023/09/30 05:12:10;;;;;;;7.22;4.40;;;;;;;16.46;69.70;93522.94;2026270;70;20149;-76
2023/09/30 05:14:38;;;;;;;10.40;6.22;;;;;;;16.14;70.75;93518.41;2026251;70;20152;-75
2023/09/30 05:17:05;;;;;;;10.13;6.10;;;;;;;16.32;69.62;93510.84;2026003;71;20177;-76
2023/09/30 05:19:32;;;;;;;10.77;6.65;;;;;;;16.40;69.87;93521.88;2026190;70;20240;-75
2023/09/30 05:21:58;;;;;;;14.18;8.82;;;;;;;16.29;70.66;93520.63;2026654;70;20149;-75
2023/09/30 05:24:23;;;;;;;9.65;6.22;;;;;;;16.39;70.71;93524.00;2026347;70;20180;-74
2023/09/30 05:26:49;;;;;;;16.15;9.32;;;;;;;16.43;70.63;93517.78;2026431;71;20583;-78
2023/09/30 05:29:16;;;;;;;11.48;7.45;;;;;;;16.52;69.85;93519.69;2026496;70;20145;-76
2023/09/30 05:31:42;;;;;;;11.52;6.90;;;;;;;16.55;69.77;93512.75;2026315;70;20152;-77
2023/09/30 05:34:07;;;;;;;11.10;6.82;;;;;;;16.50;70.65;93516.75;2025994;70;20282;-75
2023/09/30 05:36:34;;;;;;;10.55;6.30;;;;;;;16.47;70.11;93513.06;2026053;70;20707;-75
2023/09/30 05:39:00;;;;;;;16.02;9.02;;;;;;;16.50;69.29;93514.63;2026278;71;20153;-75
2023/09/30 05:41:27;;;;;;;15.30;7.95;;;;;;;16.51;69.81;93515.38;2026258;70;20188;-75
2023/09/30 05:43:54;;;;;;;11.35;7.80;;;;;;;16.49;69.67;93507.50;2026279;70;20176;-75
2023/09/30 05:46:21;;;;;;;14.82;7.20;;;;;;;16.52;70.51;93517.56;2026251;70;20160;-76
2023/09/30 05:48:47;;;;;;;11.65;7.00;;;;;;;16.59;69.92;93518.63;2026255;70;20173;-76
2023/09/30 05:51:15;;;;;;;11.15;5.90;;;;;;;16.64;68.14;93511.06;2025750;70;20164;-76
2023/09/30 05:53:44;;;;;;;12.15;5.95;;;;;;;16.66;69.15;93520.41;2026137;71;20149;-76
2023/09/30 05:56:15;;;;;;;10.27;6.15;;;;;;;16.71;68.69;93510.72;2026046;70;20553;-74
2023/09/30 05:58:43;;;;;;;7.65;5.53;;;;;;;16.66;69.28;93511.88;2026118;70;20189;-74
2023/09/30 06:01:10;;;;;;;10.95;5.38;;;;;;;16.75;68.92;93524.44;2022843;71;20240;-73
2023/09/30 06:03:39;;;;;;;8.98;5.40;;;;;;;16.61;70.01;93524.41;2026107;70;20106;-75
2023/09/30 06:06:15;;;;;;;9.27;5.43;;;;;;;16.72;70.33;93520.00;2026110;70;20241;-77
2023/09/30 06:08:45;;;;;;;11.63;5.82;;;;;;;16.18;70.28;93430.56;2026255;70;20164;-74
2023/09/30 06:11:19;;;;;;;12.40;6.07;;;;;;;16.86;69.54;93537.06;2026117;70;20149;-75
2023/09/30 06:13:47;;;;;;;8.80;5.47;;;;;;;16.85;69.41;93527.06;2025835;71;20149;-76
2023/09/30 06:16:13;;;;;;;11.10;6.00;;;;;;;16.85;69.59;93529.91;2024895;71;20718;-76
2023/09/30 06:18:39;;;;;;;13.73;5.85;;;;;;;16.97;68.51;93534.09;2022913;71;20215;-74
2023/09/30 06:21:05;;;;;;;10.40;6.05;;;;;;;17.06;69.08;93534.50;2022876;71;20153;-76
2023/09/30 06:23:31;;;;;;;9.60;6.07;;;;;;;17.05;69.27;93547.28;2023339;71;20218;-75
2023/09/30 06:25:59;;;;;;;11.82;5.72;;;;;;;17.08;69.06;93548.81;2026183;70;20150;-77
2023/09/30 06:28:26;;;;;;;10.73;6.25;;;;;;;17.21;67.94;93559.44;2025559;71;20189;-74
2023/09/30 06:30:52;;;;;;;12.18;6.20;;;;;;;17.28;68.58;93555.53;2025354;71;20175;-75
2023/09/30 06:33:18;;;;;;;10.80;6.00;;;;;;;17.34;66.76;93558.69;2026111;71;20214;-74
2023/09/30 06:35:50;;;;;;;9.90;6.03;;;;;;;17.31;67.07;93562.06;2025605;71;20161;-75
2023/09/30 06:38:19;;;;;;;13.45;6.68;;;;;;;17.34;67.46;93567.22;2026275;70;20153;-75
2023/09/30 06:40:48;;;;;;;11.70;7.35;;;;;;;17.34;66.95;93558.69;2026214;70;20172;-74
2023/09/30 06:43:17;;;;;;;12.48;7.40;;;;;;;17.38;67.46;93564.56;2026833;70;20153;-72
2023/09/30 06:45:44;;;;;;;13.88;7.10;;;;;;;17.41;66.82;93566.16;2026437;70;20155;-73
2023/09/30 06:48:13;;;;;;;12.52;7.82;;;;;;;17.35;67.18;93565.84;2026437;70;20183;-73
2023/09/30 06:50:48;;;;;;;13.00;8.23;;;;;;;17.46;66.56;93558.56;2028643;70;20157;-73
2023/09/30 06:53:16;;;;;;;13.05;8.10;;;;;;;17.47;68.02;93579.94;2026083;70;20193;-77
2023/09/30 06:55:45;;;;;;;14.30;7.10;;;;;;;17.52;67.12;93575.94;2026363;70;20188;-74
2023/09/30 06:58:12;;;;;;;11.45;6.90;;;;;;;17.57;67.18;93586.13;2026536;70;20506;-75
2023/09/30 07:00:38;;;;;;;11.57;8.10;;;;;;;17.42;67.22;93553.41;2026416;70;20619;-75
2023/09/30 07:03:04;;;;;;;14.30;8.38;;;;;;;17.29;68.40;93588.31;2025841;70;20153;-75
2023/09/30 07:05:30;;;;;;;14.38;7.93;;;;;;;16.90;70.98;93600.56;2026439;70;20168;-75
2023/09/30 07:07:56;;;;;;;13.38;8.18;;;;;;;17.15;69.90;93613.94;2025507;71;20160;-74
2023/09/30 07:10:23;;;;;;;10.55;7.68;;;;;;;17.49;67.45;93603.53;2025949;70;20229;-75
2023/09/30 07:12:49;;;;;;;13.48;7.70;;;;;;;17.69;67.28;93597.38;2026255;70;20174;-74
2023/09/30 07:15:14;;;;;;;11.30;7.45;;;;;;;17.76;67.31;93607.72;2025935;70;20171;-76
2023/09/30 07:17:40;;;;;;;14.18;8.05;;;;;;;17.87;67.18;93606.09;2026582;71;20153;-75
2023/09/30 07:20:07;;;;;;;15.80;7.53;;;;;;;17.90;66.74;93590.56;2026553;70;20149;-74
2023/09/30 07:22:36;;;;;;;12.48;8.50;;;;;;;17.70;67.27;93590.31;2026629;70;20157;-74
2023/09/30 07:25:02;;;;;;;10.25;7.07;;;;;;;17.88;66.13;93581.94;2026691;70;20157;-77
2023/09/30 07:27:27;;;;;;;13.70;8.52;;;;;;;18.11;62.51;93584.47;2026207;70;20173;-74
2023/09/30 07:29:53;;;;;;;14.98;7.40;;;;;;;18.22;65.88;93594.22;2026759;70;20156;-76
2023/09/30 07:32:22;;;;;;;11.27;7.35;;;;;;;18.26;65.83;93597.25;2026699;70;20148;-76
2023/09/30 07:34:47;;;;;;;10.38;6.80;;;;;;;18.33;63.35;93601.16;2026140;70;20179;-77
2023/09/30 07:37:14;;;;;;;12.00;6.30;;;;;;;18.23;64.18;93609.94;2026935;70;20152;-77
2023/09/30 07:39:39;;;;;;;8.27;5.78;;;;;;;18.26;64.41;93614.34;2026477;70;20153;-75
2023/09/30 07:42:08;;;;;;;11.05;6.03;;;;;;;18.42;65.09;93611.53;2026006;70;20156;-74
2023/09/30 07:44:36;;;;;;;10.52;5.93;;;;;;;18.54;64.46;93603.53;2025580;71;20160;-75
2023/09/30 07:47:03;;;;;;;9.73;6.30;;;;;;;18.77;63.29;93608.16;2026294;70;20229;-76
2023/09/30 07:49:29;;;;;;;11.10;5.97;;;;;;;18.26;65.51;93605.81;2026291;70;20187;-75
2023/09/30 07:51:55;;;;;;;8.55;5.25;;;;;;;18.45;64.14;93602.41;2026520;70;20608;-74
2023/09/30 07:54:21;;;;;;;10.98;5.78;;;;;;;18.29;65.48;93615.94;2026494;70;20152;-74
2023/09/30 07:56:47;;;;;;;11.30;5.88;;;;;;;18.23;64.78;93624.19;2023142;71;20656;-74
2023/09/30 07:59:13;;;;;;;9.63;5.68;;;;;;;18.53;63.93;93619.16;2026092;70;20159;-74
2023/09/30 08:01:39;;;;;;;10.27;5.85;;;;;;;18.46;64.56;93628.81;2026494;70;20213;-75
2023/09/30 08:04:04;;;;;;;11.38;5.43;;;;;;;18.44;62.58;93618.06;2026349;70;20188;-75
2023/09/30 08:06:31;;;;;;;11.10;5.82;;;;;;;18.84;62.95;93629.88;2026448;70;20156;-76
2023/09/30 08:08:56;;;;;;;11.40;5.45;;;;;;;18.87;63.56;93633.53;2026258;70;20149;-75
2023/09/30 08:11:22;;;;;;;8.60;4.97;;;;;;;19.04;63.03;93619.34;2026464;70;20640;-75
2023/09/30 08:13:48;;;;;;;9.48;5.43;;;;;;;19.35;63.17;93634.22;2026418;70;20181;-74
2023/09/30 08:16:13;;;;;;;13.35;6.00;;;;;;;18.93;61.81;93631.72;2025629;70;20163;-75
2023/09/30 08:18:39;;;;;;;12.50;6.20;;;;;;;18.66;64.59;93624.06;2023125;71;20664;-75
2023/09/30 08:21:10;;;;;;;11.93;6.13;;;;;;;18.65;64.65;93634.00;2025956;70;20165;-73
2023/09/30 08:23:35;;;;;;;9.82;5.32;;;;;;;19.17;63.61;93642.72;2026321;70;20246;-76
2023/09/30 08:26:01;;;;;;;10.40;5.43;;;;;;;18.95;64.27;93651.75;2026070;70;20606;-74
2023/09/30 08:28:27;;;;;;;11.40;6.15;;;;;;;18.41;65.97;93639.28;2026035;70;20206;-74
2023/09/30 08:30:57;;;;;;;10.52;5.88;;;;;;;19.03;64.59;93640.72;2026255;71;20221;-74
2023/09/30 08:33:22;;;;;;;9.88;5.50;;;;;;;19.45;60.25;93638.25;2025741;71;20252;-76
2023/09/30 08:35:48;;;;;;;11.85;5.95;;;;;;;19.39;63.36;93640.84;2026194;70;20149;-76
2023/09/30 08:38:14;;;;;;;9.57;5.88;;;;;;;19.35;63.04;93634.97;2026014;71;20511;-76
2023/09/30 08:40:40;;;;;;;9.60;5.88;;;;;;;19.39;62.86;93626.56;2026244;71;20237;-76
2023/09/30 08:43:11;;;;;;;10.60;6.15;;;;;;;19.55;62.59;93617.94;2025834;70;20157;-76
2023/09/30 08:45:43;;;;;;;11.15;6.30;;;;;;;20.08;61.50;93625.88;2026109;70;20187;-76
2023/09/30 08:48:09;;;;;;;10.85;5.80;;;;;;;20.47;61.93;93624.50;2026207;70;20173;-75
2023/09/30 08:50:38;;;;;;;10.25;5.53;;;;;;;20.55;61.20;93619.13;2025970;71;20225;-77
2023/09/30 08:53:05;;;;;;;13.60;6.10;;;;;;;20.48;60.89;93615.31;2025675;70;20189;-74
2023/09/30 08:55:33;;;;;;;13.40;6.30;;;;;;;20.68;60.77;93608.91;2026547;70;20525;-76
2023/09/30 08:58:01;;;;;;;13.00;6.32;;;;;;;20.96;60.46;93606.34;2026511;70;20221;-75
2023/09/30 09:00:27;;;;;;;10.70;6.57;;;;;;;21.24;59.09;93615.22;2025639;71;20164;-74
2023/09/30 09:02:53;;;;;;;8.38;6.00;;;;;;;21.71;57.86;93622.59;2027428;70;20156;-75
2023/09/30 09:05:19;;;;;;;9.85;5.60;;;;;;;22.47;57.05;93629.41;2026105;71;20202;-73
2023/09/30 09:07:44;;;;;;;11.43;6.53;;;;;;;22.70;57.61;93616.47;2026409;70;20610;-72
2023/09/30 09:10:15;;;;;;;10.02;5.88;;;;;;;22.59;55.69;93617.59;2025619;70;20237;-77
2023/09/30 09:12:42;;;;;;;11.30;6.70;;;;;;;22.75;54.91;93623.81;2026383;70;20617;-74
2023/09/30 09:15:24;;;;;;;13.85;6.82;;;;;;;23.49;53.50;93611.56;2025387;71;20177;-76
2023/09/30 09:17:51;;;;;;;12.65;6.97;;;;;;;23.40;53.16;93592.63;2023287;70;20142;-78
2023/09/30 09:20:20;;;;;;;10.90;6.38;;;;;;;23.88;53.32;93598.25;2023087;71;20593;-78
2023/09/30 09:22:48;;;;;;;10.75;6.72;;;;;;;23.75;52.70;93594.31;2023167;70;20169;-77
2023/09/30 09:25:13;;;;;;;10.68;6.30;;;;;;;24.10;52.38;93604.53;2023236;71;20172;-74
2023/09/30 09:27:39;;;;;;;10.68;5.80;;;;;;;24.15;50.00;93596.75;2025203;71;20156;-76
2023/09/30 09:30:26;;;;;;;13.95;6.80;;;;;;;23.68;51.55;93612.81;2025871;70;20188;-75
2023/09/30 09:32:59;;;;;;;13.02;6.70;;;;;;;23.70;52.46;93613.59;2026273;71;20216;-76
2023/09/30 09:35:27;;;;;;;13.13;6.70;;;;;;;23.15;53.78;93614.94;2026310;71;20606;-75
2023/09/30 09:37:56;;;;;;;11.52;6.18;;;;;;;24.13;52.71;93614.66;2028131;70;20626;-78
2023/09/30 09:40:29;;;;;;;13.57;7.10;;;;;;;24.46;51.13;93606.84;2025825;71;20630;-74
2023/09/30 09:42:56;;;;;;;12.43;6.93;;;;;;;25.52;49.54;93594.69;2025660;70;20159;-77
2023/09/30 09:45:24;;;;;;;12.75;7.15;;;;;;;26.21;48.58;93601.75;2025788;70;20161;-76
2023/09/30 09:47:51;;;;;;;14.77;6.88;;;;;;;26.15;48.07;93606.66;2026369;70;20172;-78
2023/09/30 09:50:19;;;;;;;12.90;7.00;;;;;;;26.00;47.41;93600.66;2026394;70;20200;-77
2023/09/30 09:52:47;;;;;;;12.43;7.07;;;;;;;25.08;49.76;93596.00;2026227;70;20210;-75
2023/09/30 09:55:16;;;;;;;12.55;6.53;;;;;;;26.40;47.43;93596.25;2025640;71;20143;-75
2023/09/30 09:57:42;;;;;;;14.38;7.50;;;;;;;26.41;46.30;93604.22;2025950;70;20141;-74
2023/09/30 10:00:14;;;;;;;14.65;7.65;;;;;;;26.26;47.32;93594.59;2026270;70;20160;-75
2023/09/30 10:02:41;;;;;;;19.63;8.40;;;;;;;27.00;45.75;93601.50;2026357;70;20176;-75
2023/09/30 10:05:08;;;;;;;17.13;8.57;;;;;;;28.44;44.22;93582.09;2026710;70;20185;-75
2023/09/30 10:07:37;;;;;;;15.50;8.82;;;;;;;27.70;44.14;93582.81;2026393;70;20511;-75
2023/09/30 10:10:07;;;;;;;16.70;8.65;;;;;;;27.74;44.33;93577.09;2026179;70;20168;-74
2023/09/30 10:12:39;;;;;;;15.00;8.43;;;;;;;28.78;42.34;93578.72;2026262;70;20194;-74
2023/09/30 10:15:23;;;;;;;14.30;7.50;;;;;;;29.05;42.01;93573.84;2026078;71;20232;-75
2023/09/30 10:18:09;;;;;;;13.85;7.60;;;;;;;29.69;41.14;93571.94;2026236;71;20152;-75
2023/09/30 10:20:47;;;;;;;15.30;8.52;;;;;;;30.17;40.14;93564.03;2026124;71;20176;-75
2023/09/30 10:23:35;;;;;;;19.05;9.65;;;;;;;28.87;40.22;93542.56;2026310;70;20141;-73
2023/09/30 10:26:13;;;;;;;17.48;9.07;;;;;;;29.84;41.25;93541.47;2026097;70;20567;-73
2023/09/30 10:28:49;;;;;;;20.60;9.68;;;;;;;30.15;39.59;93540.78;2025980;70;20141;-73
2023/09/30 10:31:24;;;;;;;20.25;9.50;;;;;;;30.77;38.47;93525.53;2026027;70;20654;-74
2023/09/30 10:34:05;;;;;;;16.45;8.95;;;;;;;32.18;36.58;93521.22;2025940;70;20141;-74
2023/09/30 10:36:40;;;;;;;17.50;9.85;;;;;;;32.43;36.35;93513.03;2026109;70;20532;-73
2023/09/30 10:39:18;;;;;;;22.23;11.43;;;;;;;32.36;35.69;93518.91;2028518;70;20149;-74
2023/09/30 10:41:45;;;;;;;22.17;10.65;;;;;;;31.91;35.29;93511.97;2028511;70;20489;-74
2023/09/30 10:44:26;;;;;;;22.38;10.63;;;;;;;31.46;35.84;93510.03;2028485;70;20169;-74
2023/09/30 10:47:00;;;;;;;18.25;10.07;;;;;;;31.87;35.50;93518.53;2028228;70;20114;-77
2023/09/30 10:49:25;;;;;;;16.67;9.45;;;;;;;32.80;35.20;93510.47;2028776;70;20148;-74
2023/09/30 10:51:56;;;;;;;19.42;9.95;;;;;;;34.26;35.23;93510.09;2028992;70;20181;-74
2023/09/30 10:54:25;;;;;;;21.90;10.50;;;;;;;35.84;32.20;93526.91;2025813;70;20638;-74
2023/09/30 10:56:55;;;;;;;19.10;10.13;;;;;;;37.06;30.73;93523.25;2029039;70;20200;-74
2023/09/30 10:59:34;;;;;;;17.83;10.25;;;;;;;38.45;28.95;93519.22;2028656;70;20645;-73
2023/09/30 11:02:00;;;;;;;17.35;9.95;;;;;;;37.40;28.51;93523.84;2029090;70;20141;-73
2023/09/30 11:04:29;;;;;;;17.98;10.18;;;;;;;38.27;28.76;93528.59;2029010;70;20163;-73
2023/09/30 11:06:55;;;;;;;16.30;10.35;;;;;;;36.81;29.01;93526.09;2028978;70;20149;-73
2023/09/30 11:09:22;;;;;;;15.90;9.60;;;;;;;37.64;27.72;93531.22;2028830;70;20149;-72
2023/09/30 11:11:53;;;;;;;17.38;9.82;;;;;;;39.39;27.91;93533.72;2028655;70;20590;-72
2023/09/30 11:14:30;;;;;;;17.35;9.40;;;;;;;41.63;26.20;93535.88;2028045;70;20204;-74
2023/09/30 11:16:59;;;;;;;15.05;9.15;;;;;;;42.10;25.05;93530.78;2028687;70;20227;-73
2023/09/30 11:19:25;;;;;;;15.65;9.77;;;;;;;39.55;26.11;93511.78;2028808;70;20137;-72
2023/09/30 11:21:52;;;;;;;14.82;9.80;;;;;;;39.96;25.33;93513.25;2028811;70;20156;-72
2023/09/30 11:24:18;;;;;;;18.02;9.63;;;;;;;40.05;26.38;93508.47;2029020;70;20164;-72
2023/09/30 11:26:45;;;;;;;16.48;9.38;;;;;;;42.89;23.81;93511.47;2029234;70;20160;-73
2023/09/30 11:29:17;;;;;;;16.10;8.98;;;;;;;41.74;23.39;93504.31;2029413;70;20152;-73
2023/09/30 11:31:47;;;;;;;15.57;9.73;;;;;;;41.36;23.88;93503.81;2029346;70;20610;-75
2023/09/30 11:34:15;;;;;;;14.43;9.05;;;;;;;41.06;25.20;93491.09;2029385;70;20175;-74